createdAt,value
2023-04-07T00:00:32.507Z,94780.00
2023-04-07T00:01:32.624Z,94784.00
2023-04-07T00:02:32.561Z,94782.00
2023-04-07T00:03:32.605Z,94780.00
2023-04-07T00:04:32.726Z,94780.00
2023-04-07T00:05:32.594Z,94780.00
2023-04-07T00:06:32.529Z,94780.00
2023-04-07T00:07:33.872Z,94782.00
2023-04-07T00:08:32.563Z,94784.00
2023-04-07T00:09:32.523Z,94784.00
2023-04-07T00:10:32.544Z,94784.00
2023-04-07T00:11:32.494Z,94782.00
2023-04-07T00:12:32.484Z,94786.00
2023-04-07T00:13:33.065Z,94782.00
2023-04-07T00:14:32.588Z,94782.00
2023-04-07T00:15:32.504Z,94782.00
2023-04-07T00:16:32.507Z,94784.00
2023-04-07T00:17:32.601Z,94780.00
2023-04-07T00:18:32.495Z,94776.00
2023-04-07T00:19:32.457Z,94774.00
2023-04-07T00:20:32.426Z,94776.00
2023-04-07T00:21:32.460Z,94770.00
2023-04-07T00:22:32.417Z,94772.00
2023-04-07T00:23:33.088Z,94768.00
2023-04-07T00:24:34.579Z,94772.00
2023-04-07T00:25:32.573Z,94772.00
2023-04-07T00:26:32.432Z,94770.00
2023-04-07T00:27:32.491Z,94770.00
2023-04-07T00:28:32.469Z,94768.00
2023-04-07T00:29:32.492Z,94770.00
2023-04-07T00:30:32.561Z,94770.00
2023-04-07T00:31:32.585Z,94770.00
2023-04-07T00:32:33.651Z,94768.00
2023-04-07T00:33:32.564Z,94764.00
2023-04-07T00:34:32.609Z,94764.00
2023-04-07T00:35:32.576Z,94768.00
2023-04-07T00:36:32.563Z,94766.00
2023-04-07T00:37:32.529Z,94764.00
2023-04-07T00:38:32.712Z,94762.00
2023-04-07T00:39:33.040Z,94762.00
2023-04-07T00:40:32.536Z,94760.00
2023-04-07T00:41:32.512Z,94758.00
2023-04-07T00:42:32.504Z,94758.00
2023-04-07T00:43:32.497Z,94754.00
2023-04-07T00:44:32.506Z,94752.00
2023-04-07T00:45:32.481Z,94752.00
2023-04-07T00:46:32.452Z,94748.00
2023-04-07T00:47:32.482Z,94754.00
2023-04-07T00:48:32.441Z,94750.00
2023-04-07T00:49:32.450Z,94748.00
2023-04-07T00:50:32.424Z,94746.00
2023-04-07T00:51:32.451Z,94748.00
2023-04-07T00:52:32.451Z,94748.00
2023-04-07T00:53:32.424Z,94748.00
2023-04-07T00:54:32.454Z,94746.00
2023-04-07T00:55:32.421Z,94744.00
2023-04-07T00:56:32.429Z,94740.00
2023-04-07T00:57:32.391Z,94742.00
2023-04-07T00:58:32.368Z,94740.00
2023-04-07T00:59:32.388Z,94738.00
2023-04-07T01:00:32.394Z,94737.00
2023-04-07T01:01:32.587Z,94737.00
2023-04-07T01:02:32.561Z,94737.00
2023-04-07T01:03:32.697Z,94733.00
2023-04-07T01:04:32.552Z,94737.00
2023-04-07T01:05:32.332Z,94735.00
2023-04-07T01:06:32.367Z,94733.00
2023-04-07T01:07:32.328Z,94731.00
2023-04-07T01:08:32.352Z,94733.00
2023-04-07T01:09:32.306Z,94733.00
2023-04-07T01:10:33.092Z,94733.00
2023-04-07T01:11:32.304Z,94731.00
2023-04-07T01:12:32.270Z,94727.00
2023-04-07T01:13:32.294Z,94729.00
2023-04-07T01:14:32.306Z,94727.00
2023-04-07T01:15:32.274Z,94729.00
2023-04-07T01:16:32.348Z,94725.00
2023-04-07T01:17:32.272Z,94729.00
2023-04-07T01:18:32.220Z,94727.00
2023-04-07T01:19:32.246Z,94733.00
2023-04-07T01:20:32.253Z,94733.00
2023-04-07T01:21:32.219Z,94735.00
2023-04-07T01:22:32.250Z,94737.00
2023-04-07T01:23:32.225Z,94735.00
2023-04-07T01:24:32.229Z,94733.00
2023-04-07T01:25:32.218Z,94733.00
2023-04-07T01:26:32.233Z,94735.00
2023-04-07T01:27:32.204Z,94733.00
2023-04-07T01:28:35.063Z,94733.00
2023-04-07T01:29:32.164Z,94735.00
2023-04-07T01:30:32.200Z,94737.00
2023-04-07T01:31:32.230Z,94737.00
2023-04-07T01:32:32.185Z,94735.00
2023-04-07T01:33:32.152Z,94737.00
2023-04-07T01:34:32.163Z,94737.00
2023-04-07T01:35:32.186Z,94740.00
2023-04-07T01:36:32.234Z,94742.00
2023-04-07T01:37:34.055Z,94740.00
2023-04-07T01:38:33.102Z,94744.00
2023-04-07T01:39:33.072Z,94740.00
2023-04-07T01:40:33.552Z,94737.00
2023-04-07T01:41:32.090Z,94737.00
2023-04-07T01:42:32.052Z,94737.00
2023-04-07T01:43:32.084Z,94738.00
2023-04-07T01:44:32.113Z,94740.00
2023-04-07T01:45:32.117Z,94738.00
2023-04-07T01:46:32.108Z,94740.00
2023-04-07T01:47:32.122Z,94737.00
2023-04-07T01:48:32.072Z,94735.00
2023-04-07T01:49:32.034Z,94735.00
2023-04-07T01:50:32.165Z,94733.00
2023-04-07T01:51:32.174Z,94735.00
2023-04-07T01:52:37.156Z,94733.00
2023-04-07T01:53:32.140Z,94735.00
2023-04-07T01:54:32.076Z,94735.00
2023-04-07T01:55:32.141Z,94733.00
2023-04-07T01:56:32.071Z,94735.00
2023-04-07T01:57:32.116Z,94735.00
2023-04-07T01:58:32.158Z,94738.00
2023-04-07T01:59:32.164Z,94738.00
2023-04-07T02:00:32.082Z,94738.00
2023-04-07T02:01:32.209Z,94740.00
2023-04-07T02:02:32.233Z,94740.00
2023-04-07T02:03:32.113Z,94740.00
2023-04-07T02:04:32.132Z,94738.00
2023-04-07T02:05:32.122Z,94740.00
2023-04-07T02:06:32.201Z,94740.00
2023-04-07T02:07:32.065Z,94740.00
2023-04-07T02:08:32.348Z,94737.00
2023-04-07T02:09:32.186Z,94737.00
2023-04-07T02:10:32.753Z,94735.00
2023-04-07T02:11:32.134Z,94735.00
2023-04-07T02:12:32.200Z,94735.00
2023-04-07T02:13:32.163Z,94738.00
2023-04-07T02:14:32.223Z,94735.00
2023-04-07T02:15:32.211Z,94738.00
2023-04-07T02:16:32.398Z,94731.00
2023-04-07T02:17:32.264Z,94731.00
2023-04-07T02:18:32.420Z,94727.00
2023-04-07T02:19:32.318Z,94725.00
2023-04-07T02:20:33.111Z,94727.00
2023-04-07T02:21:32.310Z,94725.00
2023-04-07T02:22:32.340Z,94727.00
2023-04-07T02:23:32.433Z,94725.00
2023-04-07T02:24:32.516Z,94725.00
2023-04-07T02:25:32.542Z,94723.00
2023-04-07T02:26:34.238Z,94725.00
2023-04-07T02:27:33.198Z,94723.00
2023-04-07T02:28:32.498Z,94725.00
2023-04-07T02:29:32.494Z,94725.00
2023-04-07T02:30:32.470Z,94723.00
2023-04-07T02:31:32.540Z,94717.00
2023-04-07T02:32:32.493Z,94721.00
2023-04-07T02:33:32.432Z,94715.00
2023-04-07T02:34:33.157Z,94715.00
2023-04-07T02:35:32.424Z,94713.00
2023-04-07T02:36:32.504Z,94713.00
2023-04-07T02:37:32.446Z,94713.00
2023-04-07T02:38:33.067Z,94711.00
2023-04-07T02:39:32.422Z,94709.00
2023-04-07T02:40:32.387Z,94711.00
2023-04-07T02:41:32.379Z,94707.00
2023-04-07T02:42:32.375Z,94709.00
2023-04-07T02:43:32.361Z,94709.00
2023-04-07T02:44:32.399Z,94709.00
2023-04-07T02:45:32.372Z,94705.00
2023-04-07T02:46:32.481Z,94709.00
2023-04-07T02:47:32.405Z,94701.00
2023-04-07T02:48:32.374Z,94703.00
2023-04-07T02:49:32.337Z,94701.00
2023-04-07T02:50:33.226Z,94697.00
2023-04-07T02:51:32.376Z,94697.00
2023-04-07T02:52:32.376Z,94693.00
2023-04-07T02:53:32.411Z,94693.00
2023-04-07T02:54:32.266Z,94697.00
2023-04-07T02:55:32.283Z,94697.00
2023-04-07T02:56:32.317Z,94691.00
2023-04-07T02:57:33.134Z,94691.00
2023-04-07T02:58:32.247Z,94690.00
2023-04-07T02:59:32.260Z,94690.00
2023-04-07T03:00:32.292Z,94691.00
2023-04-07T03:01:32.381Z,94693.00
2023-04-07T03:02:32.475Z,94693.00
2023-04-07T03:03:32.325Z,94690.00
2023-04-07T03:04:32.259Z,94690.00
2023-04-07T03:05:32.223Z,94690.00
2023-04-07T03:06:32.252Z,94690.00
2023-04-07T03:07:32.250Z,94693.00
2023-04-07T03:08:33.114Z,94691.00
2023-04-07T03:09:32.191Z,94691.00
2023-04-07T03:10:32.158Z,94690.00
2023-04-07T03:11:32.172Z,94690.00
2023-04-07T03:12:32.143Z,94688.00
2023-04-07T03:13:32.181Z,94690.00
2023-04-07T03:14:32.140Z,94688.00
2023-04-07T03:15:32.144Z,94693.00
2023-04-07T03:16:32.221Z,94691.00
2023-04-07T03:17:32.223Z,94691.00
2023-04-07T03:18:32.112Z,94686.00
2023-04-07T03:19:32.113Z,94688.00
2023-04-07T03:20:32.604Z,94690.00
2023-04-07T03:21:32.215Z,94688.00
2023-04-07T03:22:32.095Z,94686.00
2023-04-07T03:23:32.093Z,94684.00
2023-04-07T03:24:32.121Z,94686.00
2023-04-07T03:25:32.126Z,94686.00
2023-04-07T03:26:32.149Z,94688.00
2023-04-07T03:27:32.166Z,94684.00
2023-04-07T03:28:32.187Z,94682.00
2023-04-07T03:29:32.207Z,94682.00
2023-04-07T03:30:32.388Z,94678.00
2023-04-07T03:31:32.244Z,94678.00
2023-04-07T03:32:32.439Z,94676.00
2023-04-07T03:33:32.285Z,94674.00
2023-04-07T03:34:32.305Z,94674.00
2023-04-07T03:35:32.716Z,94678.00
2023-04-07T03:36:32.383Z,94678.00
2023-04-07T03:37:33.131Z,94678.00
2023-04-07T03:38:32.485Z,94676.00
2023-04-07T03:39:32.550Z,94674.00
2023-04-07T03:40:32.567Z,94676.00
2023-04-07T03:41:32.593Z,94672.00
2023-04-07T03:42:32.660Z,94676.00
2023-04-07T03:43:32.622Z,94674.00
2023-04-07T03:44:32.698Z,94678.00
2023-04-07T03:45:32.662Z,94676.00
2023-04-07T03:46:33.618Z,94674.00
2023-04-07T03:47:32.709Z,94676.00
2023-04-07T03:48:32.670Z,94678.00
2023-04-07T03:49:32.757Z,94674.00
2023-04-07T03:50:32.708Z,94674.00
2023-04-07T03:51:32.783Z,94676.00
2023-04-07T03:52:35.605Z,94674.00
2023-04-07T03:53:32.764Z,94674.00
2023-04-07T03:54:32.783Z,94672.00
2023-04-07T03:55:32.787Z,94674.00
2023-04-07T03:56:33.644Z,94672.00
2023-04-07T03:57:32.727Z,94670.00
2023-04-07T03:58:32.692Z,94674.00
2023-04-07T03:59:32.721Z,94672.00
2023-04-07T04:00:32.753Z,94674.00
2023-04-07T04:01:32.733Z,94674.00
2023-04-07T04:02:32.772Z,94670.00
2023-04-07T04:03:32.822Z,94672.00
2023-04-07T04:04:32.712Z,94672.00
2023-04-07T04:05:32.669Z,94668.00
2023-04-07T04:06:32.668Z,94670.00
2023-04-07T04:07:32.711Z,94668.00
2023-04-07T04:08:32.679Z,94670.00
2023-04-07T04:09:32.660Z,94670.00
2023-04-07T04:10:32.616Z,94670.00
2023-04-07T04:11:32.649Z,94668.00
2023-04-07T04:12:32.801Z,94668.00
2023-04-07T04:13:32.616Z,94668.00
2023-04-07T04:14:32.674Z,94664.00
2023-04-07T04:15:32.633Z,94666.00
2023-04-07T04:16:32.672Z,94664.00
2023-04-07T04:17:32.636Z,94658.00
2023-04-07T04:18:32.617Z,94662.00
2023-04-07T04:19:32.614Z,94658.00
2023-04-07T04:20:32.602Z,94660.00
2023-04-07T04:21:32.621Z,94656.00
2023-04-07T04:22:32.543Z,94656.00
2023-04-07T04:23:32.616Z,94654.00
2023-04-07T04:24:32.587Z,94654.00
2023-04-07T04:25:32.538Z,94652.00
2023-04-07T04:26:32.515Z,94656.00
2023-04-07T04:27:32.557Z,94652.00
2023-04-07T04:28:32.544Z,94654.00
2023-04-07T04:29:33.024Z,94652.00
2023-04-07T04:30:32.519Z,94652.00
2023-04-07T04:31:32.582Z,94654.00
2023-04-07T04:32:32.570Z,94650.00
2023-04-07T04:33:32.539Z,94652.00
2023-04-07T04:34:32.490Z,94650.00
2023-04-07T04:35:32.477Z,94648.00
2023-04-07T04:36:32.543Z,94650.00
2023-04-07T04:37:32.459Z,94648.00
2023-04-07T04:38:32.480Z,94648.00
2023-04-07T04:39:32.491Z,94652.00
2023-04-07T04:40:32.460Z,94648.00
2023-04-07T04:41:32.520Z,94650.00
2023-04-07T04:42:32.499Z,94652.00
2023-04-07T04:43:32.469Z,94650.00
2023-04-07T04:44:32.442Z,94650.00
2023-04-07T04:45:32.392Z,94648.00
2023-04-07T04:46:32.468Z,94646.00
2023-04-07T04:47:32.437Z,94650.00
2023-04-07T04:48:32.394Z,94646.00
2023-04-07T04:49:32.361Z,94648.00
2023-04-07T04:50:32.429Z,94646.00
2023-04-07T04:51:32.412Z,94650.00
2023-04-07T04:52:32.630Z,94652.00
2023-04-07T04:53:32.551Z,94648.00
2023-04-07T04:54:32.423Z,94648.00
2023-04-07T04:55:32.487Z,94648.00
2023-04-07T04:56:32.438Z,94650.00
2023-04-07T04:57:32.518Z,94650.00
2023-04-07T04:58:33.103Z,94652.00
2023-04-07T04:59:32.562Z,94656.00
2023-04-07T05:00:32.675Z,94652.00
2023-04-07T05:01:33.649Z,94650.00
2023-04-07T05:02:32.912Z,94654.00
2023-04-07T05:03:33.097Z,94658.00
2023-04-07T05:04:33.123Z,94654.00
2023-04-07T05:05:33.665Z,94652.00
2023-04-07T05:06:32.900Z,94648.00
2023-04-07T05:07:32.990Z,94650.00
2023-04-07T05:08:32.956Z,94652.00
2023-04-07T05:09:33.029Z,94648.00
2023-04-07T05:10:32.973Z,94654.00
2023-04-07T05:11:32.997Z,94652.00
2023-04-07T05:12:32.954Z,94648.00
2023-04-07T05:13:33.021Z,94650.00
2023-04-07T05:14:32.998Z,94650.00
2023-04-07T05:15:33.136Z,94646.00
2023-04-07T05:16:32.977Z,94648.00
2023-04-07T05:17:33.018Z,94648.00
2023-04-07T05:18:33.042Z,94648.00
2023-04-07T05:19:33.086Z,94648.00
2023-04-07T05:20:33.178Z,94650.00
2023-04-07T05:21:33.122Z,94652.00
2023-04-07T05:22:33.139Z,94648.00
2023-04-07T05:23:33.209Z,94650.00
2023-04-07T05:24:34.152Z,94650.00
2023-04-07T05:25:33.268Z,94652.00
2023-04-07T05:26:33.255Z,94654.00
2023-04-07T05:27:33.238Z,94654.00
2023-04-07T05:28:33.302Z,94654.00
2023-04-07T05:29:33.372Z,94654.00
2023-04-07T05:30:33.363Z,94658.00
2023-04-07T05:31:33.492Z,94658.00
2023-04-07T05:32:33.442Z,94658.00
2023-04-07T05:33:33.447Z,94658.00
2023-04-07T05:34:33.458Z,94656.00
2023-04-07T05:35:33.472Z,94654.00
2023-04-07T05:36:33.472Z,94654.00
2023-04-07T05:37:33.531Z,94658.00
2023-04-07T05:38:33.625Z,94654.00
2023-04-07T05:39:33.566Z,94656.00
2023-04-07T05:40:35.047Z,94654.00
2023-04-07T05:41:33.586Z,94652.00
2023-04-07T05:42:33.560Z,94656.00
2023-04-07T05:43:33.563Z,94654.00
2023-04-07T05:44:33.595Z,94650.00
2023-04-07T05:45:33.681Z,94654.00
2023-04-07T05:46:33.523Z,94652.00
2023-04-07T05:47:33.702Z,94650.00
2023-04-07T05:48:33.502Z,94654.00
2023-04-07T05:49:33.566Z,94648.00
2023-04-07T05:50:33.525Z,94648.00
2023-04-07T05:51:33.508Z,94646.00
2023-04-07T05:52:33.602Z,94646.00
2023-04-07T05:53:33.499Z,94648.00
2023-04-07T05:54:33.484Z,94646.00
2023-04-07T05:55:33.514Z,94650.00
2023-04-07T05:56:33.455Z,94650.00
2023-04-07T05:57:33.478Z,94652.00
2023-04-07T05:58:33.492Z,94652.00
2023-04-07T05:59:33.546Z,94650.00
2023-04-07T06:00:33.440Z,94652.00
2023-04-07T06:01:33.416Z,94652.00
2023-04-07T06:02:33.515Z,94650.00
2023-04-07T06:03:33.741Z,94656.00
2023-04-07T06:04:33.411Z,94654.00
2023-04-07T06:05:33.418Z,94658.00
2023-04-07T06:06:33.393Z,94654.00
2023-04-07T06:07:34.125Z,94658.00
2023-04-07T06:08:33.375Z,94658.00
2023-04-07T06:09:33.342Z,94658.00
2023-04-07T06:10:33.387Z,94662.00
2023-04-07T06:11:33.378Z,94660.00
2023-04-07T06:12:33.405Z,94662.00
2023-04-07T06:13:33.636Z,94658.00
2023-04-07T06:14:33.341Z,94666.00
2023-04-07T06:15:33.345Z,94660.00
2023-04-07T06:16:33.360Z,94662.00
2023-04-07T06:17:34.171Z,94660.00
2023-04-07T06:18:33.309Z,94662.00
2023-04-07T06:19:34.195Z,94662.00
2023-04-07T06:20:33.308Z,94664.00
2023-04-07T06:21:33.314Z,94662.00
2023-04-07T06:22:33.294Z,94664.00
2023-04-07T06:23:33.354Z,94666.00
2023-04-07T06:24:33.354Z,94664.00
2023-04-07T06:25:33.294Z,94666.00
2023-04-07T06:26:33.249Z,94660.00
2023-04-07T06:27:33.241Z,94660.00
2023-04-07T06:28:33.233Z,94662.00
2023-04-07T06:29:33.259Z,94660.00
2023-04-07T06:30:33.347Z,94662.00
2023-04-07T06:31:33.242Z,94662.00
2023-04-07T06:32:33.270Z,94658.00
2023-04-07T06:33:33.175Z,94660.00
2023-04-07T06:34:33.192Z,94660.00
2023-04-07T06:35:33.161Z,94656.00
2023-04-07T06:36:33.243Z,94658.00
2023-04-07T06:37:33.145Z,94656.00
2023-04-07T06:38:34.193Z,94656.00
2023-04-07T06:39:33.179Z,94658.00
2023-04-07T06:40:33.147Z,94658.00
2023-04-07T06:41:33.172Z,94656.00
2023-04-07T06:42:33.140Z,94654.00
2023-04-07T06:43:33.165Z,94654.00
2023-04-07T06:44:33.121Z,94654.00
2023-04-07T06:45:33.136Z,94656.00
2023-04-07T06:46:33.131Z,94654.00
2023-04-07T06:47:33.118Z,94652.00
2023-04-07T06:48:33.219Z,94652.00
2023-04-07T06:49:34.267Z,94650.00
2023-04-07T06:50:33.287Z,94654.00
2023-04-07T06:51:34.130Z,94654.00
2023-04-07T06:52:33.429Z,94652.00
2023-04-07T06:53:33.394Z,94650.00
2023-04-07T06:54:33.415Z,94654.00
2023-04-07T06:55:33.479Z,94656.00
2023-04-07T06:56:34.163Z,94654.00
2023-04-07T06:57:33.516Z,94652.00
2023-04-07T06:58:36.203Z,94650.00
2023-04-07T06:59:33.554Z,94650.00
2023-04-07T07:00:34.142Z,94650.00
2023-04-07T07:01:33.647Z,94646.00
2023-04-07T07:02:33.667Z,94644.00
2023-04-07T07:03:33.596Z,94644.00
2023-04-07T07:04:33.699Z,94641.00
2023-04-07T07:05:33.576Z,94644.00
2023-04-07T07:06:33.530Z,94641.00
2023-04-07T07:07:33.497Z,94643.00
2023-04-07T07:08:33.567Z,94639.00
2023-04-07T07:09:33.534Z,94637.00
2023-04-07T07:10:33.558Z,94637.00
2023-04-07T07:11:33.472Z,94637.00
2023-04-07T07:12:34.159Z,94637.00
2023-04-07T07:13:33.507Z,94627.00
2023-04-07T07:14:34.197Z,94623.00
2023-04-07T07:15:33.620Z,94625.00
2023-04-07T07:16:34.176Z,94625.00
2023-04-07T07:17:33.488Z,94623.00
2023-04-07T07:18:33.452Z,94625.00
2023-04-07T07:19:33.427Z,94627.00
2023-04-07T07:20:33.488Z,94625.00
2023-04-07T07:21:33.419Z,94623.00
2023-04-07T07:22:33.427Z,94625.00
2023-04-07T07:23:33.498Z,94627.00
2023-04-07T07:24:33.469Z,94625.00
2023-04-07T07:25:33.685Z,94625.00
2023-04-07T07:26:34.211Z,94627.00
2023-04-07T07:27:33.454Z,94625.00
2023-04-07T07:28:34.151Z,94623.00
2023-04-07T07:29:33.401Z,94623.00
2023-04-07T07:30:33.367Z,94625.00
2023-04-07T07:31:33.385Z,94623.00
2023-04-07T07:32:33.404Z,94627.00
2023-04-07T07:33:33.370Z,94625.00
2023-04-07T07:34:33.434Z,94623.00
2023-04-07T07:35:33.306Z,94621.00
2023-04-07T07:36:33.788Z,94623.00
2023-04-07T07:37:33.436Z,94623.00
2023-04-07T07:38:35.156Z,94617.00
2023-04-07T07:39:33.375Z,94617.00
2023-04-07T07:40:38.156Z,94613.00
2023-04-07T07:41:33.279Z,94613.00
2023-04-07T07:42:33.284Z,94613.00
2023-04-07T07:43:33.346Z,94611.00
2023-04-07T07:44:33.269Z,94609.00
2023-04-07T07:45:33.765Z,94609.00
2023-04-07T07:46:33.258Z,94607.00
2023-04-07T07:47:33.309Z,94605.00
2023-04-07T07:48:33.356Z,94605.00
2023-04-07T07:49:33.222Z,94603.00
2023-04-07T07:50:33.292Z,94601.00
2023-04-07T07:51:33.251Z,94599.00
2023-04-07T07:52:33.237Z,94599.00
2023-04-07T07:53:33.341Z,94599.00
2023-04-07T07:54:33.269Z,94599.00
2023-04-07T07:55:34.192Z,94597.00
2023-04-07T07:56:33.349Z,94595.00
2023-04-07T07:57:34.185Z,94595.00
2023-04-07T07:58:33.385Z,94591.00
2023-04-07T07:59:33.558Z,94591.00
2023-04-07T08:00:33.498Z,94590.00
2023-04-07T08:01:33.590Z,94586.00
2023-04-07T08:02:33.653Z,94588.00
2023-04-07T08:03:33.763Z,94586.00
2023-04-07T08:04:33.710Z,94582.00
2023-04-07T08:05:34.768Z,94588.00
2023-04-07T08:06:33.723Z,94586.00
2023-04-07T08:07:33.770Z,94586.00
2023-04-07T08:08:33.740Z,94580.00
2023-04-07T08:09:33.811Z,94582.00
2023-04-07T08:10:33.798Z,94580.00
2023-04-07T08:11:33.786Z,94580.00
2023-04-07T08:12:33.798Z,94576.00
2023-04-07T08:13:33.863Z,94578.00
2023-04-07T08:14:33.959Z,94582.00
2023-04-07T08:15:33.953Z,94578.00
2023-04-07T08:16:34.067Z,94574.00
2023-04-07T08:17:34.067Z,94576.00
2023-04-07T08:18:34.054Z,94572.00
2023-04-07T08:19:34.746Z,94572.00
2023-04-07T08:20:34.196Z,94568.00
2023-04-07T08:21:34.169Z,94566.00
2023-04-07T08:22:34.207Z,94570.00
2023-04-07T08:23:34.218Z,94566.00
2023-04-07T08:24:34.413Z,94566.00
2023-04-07T08:25:34.306Z,94564.00
2023-04-07T08:26:34.307Z,94564.00
2023-04-07T08:27:34.345Z,94566.00
2023-04-07T08:28:34.400Z,94562.00
2023-04-07T08:29:35.176Z,94564.00
2023-04-07T08:30:34.523Z,94562.00
2023-04-07T08:31:34.565Z,94568.00
2023-04-07T08:32:34.617Z,94566.00
2023-04-07T08:33:34.801Z,94562.00
2023-04-07T08:34:34.765Z,94562.00
2023-04-07T08:35:34.713Z,94554.00
2023-04-07T08:36:35.740Z,94550.00
2023-04-07T08:37:34.772Z,94550.00
2023-04-07T08:38:34.806Z,94546.00
2023-04-07T08:39:34.862Z,94544.00
2023-04-07T08:40:34.895Z,94543.00
2023-04-07T08:41:34.904Z,94544.00
2023-04-07T08:42:34.979Z,94544.00
2023-04-07T08:43:34.950Z,94543.00
2023-04-07T08:44:35.006Z,94541.00
2023-04-07T08:45:34.999Z,94539.00
2023-04-07T08:46:34.996Z,94539.00
2023-04-07T08:47:35.080Z,94539.00
2023-04-07T08:48:35.061Z,94539.00
2023-04-07T08:49:35.092Z,94537.00
2023-04-07T08:50:35.245Z,94537.00
2023-04-07T08:51:35.149Z,94537.00
2023-04-07T08:52:35.188Z,94537.00
2023-04-07T08:53:35.155Z,94537.00
2023-04-07T08:54:35.192Z,94537.00
2023-04-07T08:55:35.187Z,94529.00
2023-04-07T08:56:38.179Z,94529.00
2023-04-07T08:57:35.204Z,94527.00
2023-04-07T08:58:35.198Z,94527.00
2023-04-07T08:59:35.180Z,94527.00
2023-04-07T09:00:35.839Z,94525.00
2023-04-07T09:01:35.615Z,94525.00
2023-04-07T09:02:35.565Z,94525.00
2023-04-07T09:03:35.270Z,94523.00
2023-04-07T09:04:35.157Z,94523.00
2023-04-07T09:05:35.121Z,94523.00
2023-04-07T09:06:35.129Z,94519.00
2023-04-07T09:07:35.083Z,94519.00
2023-04-07T09:08:35.135Z,94517.00
2023-04-07T09:09:35.115Z,94519.00
2023-04-07T09:10:35.095Z,94513.00
2023-04-07T09:11:35.212Z,94511.00
2023-04-07T09:12:35.103Z,94507.00
2023-04-07T09:13:35.063Z,94505.00
2023-04-07T09:14:35.011Z,94505.00
2023-04-07T09:15:36.704Z,94501.00
2023-04-07T09:16:35.055Z,94497.00
2023-04-07T09:17:35.082Z,94496.00
2023-04-07T09:18:35.004Z,94494.00
2023-04-07T09:19:35.054Z,94492.00
2023-04-07T09:20:35.019Z,94494.00
2023-04-07T09:21:35.755Z,94492.00
2023-04-07T09:22:35.031Z,94490.00
2023-04-07T09:23:35.006Z,94488.00
2023-04-07T09:24:34.965Z,94484.00
2023-04-07T09:25:35.086Z,94482.00
2023-04-07T09:26:35.706Z,94482.00
2023-04-07T09:27:34.955Z,94478.00
2023-04-07T09:28:35.052Z,94476.00
2023-04-07T09:29:34.941Z,94478.00
2023-04-07T09:30:34.967Z,94474.00
2023-04-07T09:31:34.979Z,94472.00
2023-04-07T09:32:34.956Z,94474.00
2023-04-07T09:33:34.980Z,94470.00
2023-04-07T09:34:34.945Z,94470.00
2023-04-07T09:35:41.693Z,94470.00
2023-04-07T09:36:34.943Z,94464.00
2023-04-07T09:37:34.906Z,94462.00
2023-04-07T09:38:36.719Z,94460.00
2023-04-07T09:39:35.774Z,94460.00
2023-04-07T09:40:34.920Z,94456.00
2023-04-07T09:41:35.014Z,94454.00
2023-04-07T09:42:34.913Z,94450.00
2023-04-07T09:43:35.674Z,94448.00
2023-04-07T09:44:34.876Z,94448.00
2023-04-07T09:45:36.170Z,94444.00
2023-04-07T09:46:34.859Z,94444.00
2023-04-07T09:47:35.738Z,94448.00
2023-04-07T09:48:34.786Z,94446.00
2023-04-07T09:49:36.671Z,94442.00
2023-04-07T09:50:34.835Z,94441.00
2023-04-07T09:51:34.810Z,94437.00
2023-04-07T09:52:34.881Z,94435.00
2023-04-07T09:53:34.891Z,94431.00
2023-04-07T09:54:35.262Z,94425.00
2023-04-07T09:55:34.970Z,94429.00
2023-04-07T09:56:35.715Z,94429.00
2023-04-07T09:57:35.071Z,94425.00
2023-04-07T09:58:36.778Z,94423.00
2023-04-07T09:59:35.155Z,94423.00
2023-04-07T10:00:35.115Z,94419.00
2023-04-07T10:01:35.165Z,94417.00
2023-04-07T10:02:36.807Z,94419.00
2023-04-07T10:03:35.808Z,94417.00
2023-04-07T10:04:35.242Z,94411.00
2023-04-07T10:05:35.241Z,94411.00
2023-04-07T10:06:35.283Z,94411.00
2023-04-07T10:07:35.260Z,94411.00
2023-04-07T10:08:35.347Z,94409.00
2023-04-07T10:09:35.317Z,94405.00
2023-04-07T10:10:35.389Z,94403.00
2023-04-07T10:11:35.385Z,94403.00
2023-04-07T10:12:35.358Z,94403.00
2023-04-07T10:13:35.388Z,94401.00
2023-04-07T10:14:35.451Z,94399.00
2023-04-07T10:15:35.441Z,94397.00
2023-04-07T10:16:35.582Z,94397.00
2023-04-07T10:17:35.583Z,94399.00
2023-04-07T10:18:35.631Z,94397.00
2023-04-07T10:19:35.756Z,94395.00
2023-04-07T10:20:35.669Z,94394.00
2023-04-07T10:21:36.067Z,94394.00
2023-04-07T10:22:35.732Z,94392.00
2023-04-07T10:23:36.701Z,94392.00
2023-04-07T10:24:35.874Z,94392.00
2023-04-07T10:25:35.833Z,94388.00
2023-04-07T10:26:35.884Z,94390.00
2023-04-07T10:27:36.161Z,94388.00
2023-04-07T10:28:35.898Z,94388.00
2023-04-07T10:29:35.985Z,94382.00
2023-04-07T10:30:36.902Z,94382.00
2023-04-07T10:31:37.840Z,94380.00
2023-04-07T10:32:36.097Z,94382.00
2023-04-07T10:33:35.997Z,94370.00
2023-04-07T10:34:36.011Z,94372.00
2023-04-07T10:35:36.138Z,94370.00
2023-04-07T10:36:36.777Z,94372.00
2023-04-07T10:37:36.141Z,94372.00
2023-04-07T10:38:36.190Z,94366.00
2023-04-07T10:39:36.214Z,94366.00
2023-04-07T10:40:36.413Z,94368.00
2023-04-07T10:41:37.287Z,94364.00
2023-04-07T10:42:36.415Z,94362.00
2023-04-07T10:43:36.334Z,94358.00
2023-04-07T10:44:36.445Z,94362.00
2023-04-07T10:45:36.443Z,94356.00
2023-04-07T10:46:36.579Z,94358.00
2023-04-07T10:47:36.630Z,94358.00
2023-04-07T10:48:36.491Z,94356.00
2023-04-07T10:49:36.516Z,94354.00
2023-04-07T10:50:37.318Z,94350.00
2023-04-07T10:51:36.587Z,94354.00
2023-04-07T10:52:36.697Z,94350.00
2023-04-07T10:53:36.671Z,94352.00
2023-04-07T10:54:36.691Z,94350.00
2023-04-07T10:55:36.722Z,94349.00
2023-04-07T10:56:36.699Z,94343.00
2023-04-07T10:57:36.751Z,94347.00
2023-04-07T10:58:36.764Z,94345.00
2023-04-07T10:59:36.835Z,94339.00
2023-04-07T11:00:37.802Z,94339.00
2023-04-07T11:01:36.975Z,94337.00
2023-04-07T11:02:37.164Z,94337.00
2023-04-07T11:03:37.061Z,94339.00
2023-04-07T11:04:37.101Z,94337.00
2023-04-07T11:05:36.999Z,94333.00
2023-04-07T11:06:37.048Z,94333.00
2023-04-07T11:07:37.156Z,94329.00
2023-04-07T11:08:37.095Z,94329.00
2023-04-07T11:09:37.126Z,94325.00
2023-04-07T11:10:37.296Z,94327.00
2023-04-07T11:11:37.220Z,94323.00
2023-04-07T11:12:37.260Z,94325.00
2023-04-07T11:13:37.299Z,94319.00
2023-04-07T11:14:37.358Z,94319.00
2023-04-07T11:15:40.236Z,94317.00
2023-04-07T11:16:38.208Z,94317.00
2023-04-07T11:17:37.365Z,94317.00
2023-04-07T11:18:37.307Z,94317.00
2023-04-07T11:19:37.277Z,94315.00
2023-04-07T11:20:37.388Z,94313.00
2023-04-07T11:21:37.386Z,94311.00
2023-04-07T11:22:37.282Z,94311.00
2023-04-07T11:23:37.248Z,94313.00
2023-04-07T11:24:37.279Z,94309.00
2023-04-07T11:25:37.269Z,94309.00
2023-04-07T11:26:38.322Z,94307.00
2023-04-07T11:27:37.225Z,94307.00
2023-04-07T11:28:37.307Z,94305.00
2023-04-07T11:29:37.218Z,94302.00
2023-04-07T11:30:37.225Z,94305.00
2023-04-07T11:31:37.231Z,94302.00
2023-04-07T11:32:37.230Z,94296.00
2023-04-07T11:33:37.179Z,94298.00
2023-04-07T11:34:37.203Z,94296.00
2023-04-07T11:35:37.190Z,94298.00
2023-04-07T11:36:37.191Z,94298.00
2023-04-07T11:37:37.165Z,94298.00
2023-04-07T11:38:37.175Z,94294.00
2023-04-07T11:39:37.137Z,94290.00
2023-04-07T11:40:37.276Z,94294.00
2023-04-07T11:41:37.135Z,94290.00
2023-04-07T11:42:37.150Z,94292.00
2023-04-07T11:43:37.110Z,94292.00
2023-04-07T11:44:37.116Z,94290.00